METAR Data

Data at: 2239 UTC 26 Feb 2020

METAR for:KORH (Worcester Muni, MA, US)
Text:KORH 262154Z 09007KT 10SM OVC036 07/01 A2992 RMK AO2 SLP141 T00720011 $
Temperature: 7.2°C ( 45°F)
Dewpoint: 1.1°C ( 34°F) [RH = 65%]
Pressure (altimeter):29.92 inches Hg (1013.3 mb) [Sea level pressure: 1014.1 mb]
Winds:from the E (90 degrees) at 8 MPH (7 knots; 3.6 m/s)
Visibility:10 or more sm (16+ km)
Ceiling:3600 feet AGL
Clouds: overcast cloud deck at 3600 feet AGL
QC Flag:SOME DATA ABOVE MAY BE INACCURATE!!!"$" is an indication the sensor requires maintenance.